createdAt,value
2022-10-13T00:01:18.198Z,21.73
2022-10-13T00:03:47.342Z,24.37
2022-10-13T00:06:23.822Z,19.98
2022-10-13T00:08:51.360Z,17.63
2022-10-13T00:11:25.122Z,15.45
2022-10-13T00:14:00.668Z,16.42
2022-10-13T00:16:31.960Z,16.98
2022-10-13T00:18:59.678Z,17.58
2022-10-13T00:21:28.286Z,18.63
2022-10-13T00:23:56.091Z,24.88
2022-10-13T00:26:25.888Z,26.70
2022-10-13T00:28:54.874Z,19.13
2022-10-13T00:31:28.325Z,16.88
2022-10-13T00:33:56.098Z,17.65
2022-10-13T00:36:24.734Z,17.83
2022-10-13T00:38:52.919Z,18.27
2022-10-13T00:41:21.086Z,18.77
2022-10-13T00:44:01.241Z,18.08
2022-10-13T00:46:32.011Z,21.73
2022-10-13T00:49:06.669Z,17.58
2022-10-13T00:51:39.609Z,18.98
2022-10-13T00:54:10.428Z,17.73
2022-10-13T00:56:39.087Z,18.63
2022-10-13T00:59:13.659Z,18.92
2022-10-13T01:01:41.882Z,23.08
2022-10-13T01:04:10.398Z,20.25
2022-10-13T01:06:38.026Z,17.60
2022-10-13T01:09:08.768Z,18.40
2022-10-13T01:11:39.111Z,24.15
2022-10-13T01:14:17.150Z,14.88
2022-10-13T01:17:07.678Z,19.45
2022-10-13T01:20:12.900Z,23.13
2022-10-13T01:22:47.989Z,21.05
2022-10-13T01:25:37.088Z,27.77
2022-10-13T01:28:29.229Z,18.25
2022-10-13T01:31:08.493Z,24.85
2022-10-13T01:33:44.039Z,21.67
2022-10-13T01:36:32.008Z,17.65
2022-10-13T01:39:13.549Z,20.05
2022-10-13T01:41:46.318Z,19.02
2022-10-13T01:44:29.809Z,18.15
2022-10-13T01:46:58.490Z,22.92
2022-10-13T01:49:31.128Z,23.35
2022-10-13T01:52:03.489Z,17.45
2022-10-13T01:54:32.683Z,20.13
2022-10-13T01:57:00.184Z,18.73
2022-10-13T01:59:31.355Z,18.10
2022-10-13T02:02:01.988Z,19.15
2022-10-13T02:05:02.757Z,15.27
2022-10-13T02:07:35.735Z,16.27
2022-10-13T02:10:17.368Z,20.38
2022-10-13T02:12:59.539Z,19.10
2022-10-13T02:15:35.777Z,18.48
2022-10-13T02:18:07.596Z,21.90
2022-10-13T02:20:36.610Z,19.58
2022-10-13T02:23:10.188Z,19.98
2022-10-13T02:25:38.078Z,15.48
2022-10-13T02:28:06.228Z,17.20
2022-10-13T02:30:41.304Z,18.25
2022-10-13T02:33:09.598Z,20.05
2022-10-13T02:35:39.063Z,22.42
2022-10-13T02:38:06.874Z,19.25
2022-10-13T02:40:34.295Z,20.92
2022-10-13T02:43:01.860Z,19.95
2022-10-13T02:45:29.347Z,13.50
2022-10-13T02:47:58.108Z,20.13
2022-10-13T02:50:25.564Z,15.98
2022-10-13T02:52:53.988Z,17.27
2022-10-13T02:55:21.801Z,19.75
2022-10-13T02:57:56.968Z,16.17
2022-10-13T03:00:26.119Z,14.00
2022-10-13T03:02:54.303Z,21.23
2022-10-13T03:05:21.896Z,23.10
2022-10-13T03:07:49.903Z,20.67
2022-10-13T03:10:17.500Z,16.00
2022-10-13T03:12:44.976Z,18.40
2022-10-13T03:15:12.516Z,17.27
2022-10-13T03:17:40.046Z,17.70
2022-10-13T03:20:08.488Z,17.20
2022-10-13T03:22:36.018Z,19.30
2022-10-13T03:25:04.057Z,14.45
2022-10-13T03:27:31.609Z,14.07
2022-10-13T03:29:59.049Z,16.50
2022-10-13T03:32:26.508Z,14.35
2022-10-13T03:34:54.247Z,14.27
2022-10-13T03:37:21.776Z,18.10
2022-10-13T03:39:49.248Z,17.15
2022-10-13T03:42:18.223Z,16.73
2022-10-13T03:44:51.354Z,17.10
2022-10-13T03:47:21.238Z,19.83
2022-10-13T03:49:48.666Z,17.67
2022-10-13T03:52:16.142Z,17.60
2022-10-13T03:54:43.658Z,16.13
2022-10-13T03:57:11.083Z,19.17
2022-10-13T03:59:41.127Z,19.20
2022-10-13T04:02:08.846Z,14.98
2022-10-13T04:04:38.097Z,20.63
2022-10-13T04:07:07.174Z,12.77
2022-10-13T04:09:34.868Z,14.93
2022-10-13T04:12:02.335Z,17.10
2022-10-13T04:14:29.877Z,13.50
2022-10-13T04:17:02.748Z,17.98
2022-10-13T04:19:30.246Z,12.77
2022-10-13T04:21:58.867Z,11.30
2022-10-13T04:24:26.396Z,14.80
2022-10-13T04:26:53.857Z,21.92
2022-10-13T04:29:21.302Z,13.35
2022-10-13T04:31:52.508Z,19.38
2022-10-13T04:34:20.853Z,23.33
2022-10-13T04:36:51.929Z,21.73
2022-10-13T04:39:19.536Z,15.80
2022-10-13T04:41:49.587Z,12.65
2022-10-13T04:44:17.034Z,13.75
2022-10-13T04:46:44.486Z,20.58
2022-10-13T04:49:12.047Z,17.25
2022-10-13T04:51:39.543Z,16.73
2022-10-13T04:54:07.022Z,15.85
2022-10-13T04:56:34.572Z,13.73
2022-10-13T04:59:06.078Z,13.48
2022-10-13T05:01:34.325Z,15.85
2022-10-13T05:04:04.506Z,12.90
2022-10-13T05:06:53.244Z,16.73
2022-10-13T05:09:22.497Z,18.00
2022-10-13T05:11:49.899Z,17.05
2022-10-13T05:14:17.445Z,21.02
2022-10-13T05:16:44.951Z,15.73
2022-10-13T05:19:14.006Z,21.20
2022-10-13T05:21:41.746Z,23.40
2022-10-13T05:24:13.633Z,19.48
2022-10-13T05:26:41.953Z,20.75
2022-10-13T05:29:09.406Z,28.55
2022-10-13T05:31:37.074Z,22.83
2022-10-13T05:34:04.574Z,24.95
2022-10-13T05:36:34.284Z,20.73
2022-10-13T05:39:06.496Z,21.88
2022-10-13T05:41:34.435Z,22.17
2022-10-13T05:44:08.081Z,23.77
2022-10-13T05:46:40.622Z,23.10
2022-10-13T05:49:08.125Z,19.40
2022-10-13T05:51:40.019Z,23.35
2022-10-13T05:54:14.322Z,18.27
2022-10-13T05:56:47.875Z,22.75
2022-10-13T05:59:18.497Z,20.35
2022-10-13T06:01:48.215Z,15.60
2022-10-13T06:04:22.016Z,22.00
2022-10-13T06:09:18.144Z,19.63
2022-10-13T06:11:46.346Z,21.15
2022-10-13T06:14:13.815Z,19.70
2022-10-13T06:16:42.275Z,30.00
2022-10-13T06:19:09.701Z,25.40
2022-10-13T06:21:37.135Z,21.40
2022-10-13T06:24:04.853Z,26.77
2022-10-13T06:26:32.221Z,31.58
2022-10-13T06:29:00.318Z,33.17
2022-10-13T06:31:28.367Z,36.13
2022-10-13T06:33:55.940Z,24.40
2022-10-13T06:36:23.425Z,31.13
2022-10-13T06:38:51.171Z,34.47
2022-10-13T06:41:20.943Z,26.25
2022-10-13T06:43:48.415Z,26.88
2022-10-13T06:46:17.341Z,26.92
2022-10-13T06:48:44.854Z,23.10
2022-10-13T06:51:12.846Z,23.08
2022-10-13T06:53:40.310Z,25.42
2022-10-13T06:56:08.451Z,27.05
2022-10-13T06:58:36.651Z,19.73
2022-10-13T07:01:05.679Z,28.33
2022-10-13T07:03:33.630Z,23.10
2022-10-13T07:06:05.972Z,27.15
2022-10-13T07:08:34.639Z,29.35
2022-10-13T07:11:16.122Z,22.27
2022-10-13T07:13:48.511Z,32.00
2022-10-13T07:16:16.052Z,32.28
2022-10-13T07:18:43.544Z,33.65
2022-10-13T07:21:11.085Z,26.83
2022-10-13T07:23:38.665Z,32.75
2022-10-13T07:26:12.573Z,23.88
2022-10-13T07:31:12.000Z,29.05
2022-10-13T07:33:40.255Z,25.15
2022-10-13T07:36:08.128Z,20.52
2022-10-13T07:38:35.589Z,24.60
2022-10-13T07:41:04.680Z,24.77
2022-10-13T07:43:32.293Z,20.60
2022-10-13T07:46:01.550Z,30.25
2022-10-13T07:48:29.071Z,25.15
2022-10-13T07:51:02.972Z,22.35
2022-10-13T07:53:30.457Z,21.90
2022-10-13T07:56:01.563Z,27.08
2022-10-13T07:58:29.219Z,29.13
2022-10-13T08:01:00.964Z,22.23
2022-10-13T08:03:29.227Z,22.70
2022-10-13T08:05:59.804Z,26.70
2022-10-13T08:08:28.103Z,27.30
2022-10-13T08:10:56.143Z,24.20
2022-10-13T08:13:24.073Z,24.15
2022-10-13T08:15:51.819Z,22.60
2022-10-13T08:18:19.302Z,26.40
2022-10-13T08:20:48.232Z,20.52
2022-10-13T08:23:18.672Z,26.98
2022-10-13T08:25:52.052Z,27.67
2022-10-13T08:28:23.230Z,24.17
2022-10-13T08:30:52.004Z,25.83
2022-10-13T08:33:20.661Z,27.90
2022-10-13T08:35:48.352Z,25.17
2022-10-13T08:38:16.303Z,24.08
2022-10-13T08:40:49.189Z,24.85
2022-10-13T08:43:20.209Z,25.70
2022-10-13T08:45:51.200Z,21.65
2022-10-13T08:48:22.912Z,27.42
2022-10-13T08:50:55.099Z,24.42
2022-10-13T08:53:41.524Z,26.25
2022-10-13T08:56:20.104Z,28.30
2022-10-13T08:58:50.118Z,26.02
2022-10-13T09:01:19.447Z,28.70
2022-10-13T09:03:50.478Z,21.52
2022-10-13T09:06:28.874Z,23.15
2022-10-13T09:09:01.841Z,23.42
2022-10-13T09:11:35.980Z,26.27
2022-10-13T09:14:07.283Z,23.15
2022-10-13T09:16:41.792Z,27.20
2022-10-13T09:19:22.501Z,30.10
2022-10-13T09:22:13.273Z,25.08
2022-10-13T09:24:40.944Z,27.95
2022-10-13T09:27:16.779Z,25.42
2022-10-13T09:29:45.398Z,28.42
2022-10-13T09:32:25.728Z,27.98
2022-10-13T09:34:55.131Z,26.23
2022-10-13T09:37:24.856Z,26.33
2022-10-13T09:40:14.418Z,28.50
2022-10-13T09:42:42.089Z,27.42
2022-10-13T09:45:22.401Z,23.35
2022-10-13T09:47:53.803Z,24.05
2022-10-13T09:50:25.594Z,30.60
2022-10-13T09:53:09.541Z,25.03
2022-10-13T09:55:37.221Z,22.33
2022-10-13T09:58:17.488Z,23.27
2022-10-13T10:00:46.223Z,19.50
2022-10-13T10:03:22.594Z,20.42
2022-10-13T10:05:51.937Z,20.50
2022-10-13T10:08:33.508Z,21.80
2022-10-13T10:11:05.083Z,16.98
2022-10-13T10:13:32.643Z,21.95
2022-10-13T10:16:10.198Z,21.42
2022-10-13T10:18:58.449Z,19.02
2022-10-13T10:21:49.828Z,20.48
2022-10-13T10:24:29.547Z,16.35
2022-10-13T10:27:03.903Z,15.50
2022-10-13T10:29:58.579Z,18.63
2022-10-13T10:32:41.262Z,13.68
2022-10-13T10:35:21.152Z,14.38
2022-10-13T10:38:09.102Z,14.30
2022-10-13T10:41:01.656Z,10.23
2022-10-13T10:43:47.800Z,10.57
2022-10-13T10:46:23.662Z,12.15
2022-10-13T10:49:15.731Z,14.30
2022-10-13T10:51:44.010Z,9.70
2022-10-13T10:54:17.483Z,11.07
2022-10-13T10:56:53.181Z,14.02
2022-10-13T10:59:40.354Z,14.38
2022-10-13T11:02:07.771Z,13.13
2022-10-13T11:04:45.823Z,12.43
2022-10-13T11:07:22.359Z,17.83
2022-10-13T11:09:50.661Z,11.18
2022-10-13T11:12:21.185Z,13.38
2022-10-13T11:15:28.909Z,11.68
2022-10-13T11:22:02.675Z,12.73
2022-10-13T11:24:39.412Z,15.73
2022-10-13T11:27:14.602Z,11.80
2022-10-13T11:29:46.550Z,10.93
2022-10-13T11:32:26.365Z,9.75
2022-10-13T11:35:10.213Z,15.02
2022-10-13T11:38:07.609Z,12.45
2022-10-13T11:41:09.565Z,13.82
2022-10-13T11:44:09.283Z,9.63
2022-10-13T11:47:02.875Z,14.07
2022-10-13T11:49:59.365Z,11.88
2022-10-13T11:52:51.103Z,11.85
2022-10-13T11:55:29.010Z,13.27
2022-10-13T11:58:24.394Z,10.30
2022-10-13T12:01:01.979Z,18.05
2022-10-13T12:03:35.662Z,21.75
2022-10-13T12:06:34.283Z,19.73
2022-10-13T12:09:15.130Z,17.42
2022-10-13T12:11:44.466Z,16.63
2022-10-13T12:14:24.302Z,15.38
2022-10-13T12:19:31.914Z,21.65
2022-10-13T12:22:01.484Z,13.35
2022-10-13T12:24:30.731Z,22.33
2022-10-13T12:26:58.803Z,18.02
2022-10-13T12:29:31.161Z,19.13
2022-10-13T12:32:02.406Z,20.45
2022-10-13T12:34:33.363Z,21.80
2022-10-13T12:37:08.135Z,24.00
2022-10-13T12:39:37.763Z,20.77
2022-10-13T12:42:08.264Z,20.77
2022-10-13T12:44:38.524Z,17.90
2022-10-13T12:47:05.973Z,24.75
2022-10-13T12:49:35.986Z,21.23
2022-10-13T12:52:14.566Z,19.33
2022-10-13T12:54:51.725Z,21.25
2022-10-13T12:57:35.215Z,22.52
2022-10-13T13:00:17.589Z,18.77
2022-10-13T13:02:53.554Z,22.10
2022-10-13T13:05:31.334Z,22.92
2022-10-13T13:08:05.955Z,22.77
2022-10-13T13:10:35.419Z,19.45
2022-10-13T13:13:15.628Z,21.70
2022-10-13T13:15:43.224Z,22.17
2022-10-13T13:18:22.626Z,24.65
2022-10-13T13:20:50.480Z,21.65
2022-10-13T13:23:19.464Z,17.67
2022-10-13T13:25:47.751Z,20.95
2022-10-13T13:28:16.298Z,23.10
2022-10-13T13:30:44.006Z,24.50
2022-10-13T13:35:44.254Z,15.82
2022-10-13T13:38:12.193Z,16.42
2022-10-13T13:40:39.683Z,18.75
2022-10-13T13:43:08.685Z,18.88
2022-10-13T13:45:36.415Z,13.57
2022-10-13T13:48:06.611Z,20.40
2022-10-13T13:50:36.637Z,18.83
2022-10-13T13:53:05.378Z,17.33
2022-10-13T13:55:33.123Z,15.23
2022-10-13T13:58:01.080Z,18.25
2022-10-13T14:00:28.587Z,16.05
2022-10-13T14:02:57.826Z,16.45
2022-10-13T14:05:25.635Z,16.90
2022-10-13T14:07:55.516Z,15.63
2022-10-13T14:10:23.007Z,14.50
2022-10-13T14:12:51.494Z,15.88
2022-10-13T14:15:25.816Z,14.93
2022-10-13T14:17:56.633Z,16.50
2022-10-13T14:20:24.156Z,16.10
2022-10-13T14:22:51.813Z,20.30
2022-10-13T14:25:19.386Z,15.95
2022-10-13T14:27:47.076Z,17.00
2022-10-13T14:30:14.905Z,18.80
2022-10-13T14:32:42.683Z,17.42
2022-10-13T14:35:10.235Z,20.27
2022-10-13T14:37:38.926Z,22.45
2022-10-13T14:40:06.973Z,17.67
2022-10-13T14:42:34.462Z,20.92
2022-10-13T14:45:06.657Z,21.15
2022-10-13T14:47:34.273Z,21.67
2022-10-13T14:50:01.983Z,23.00
2022-10-13T14:52:29.794Z,17.88
2022-10-13T14:54:57.279Z,19.25
2022-10-13T14:57:24.880Z,20.45
2022-10-13T14:59:52.354Z,22.95
2022-10-13T15:02:19.851Z,19.20
2022-10-13T15:04:54.054Z,15.80
2022-10-13T15:07:21.764Z,20.55
2022-10-13T15:10:04.254Z,19.48
2022-10-13T15:12:32.835Z,21.03
2022-10-13T15:15:00.345Z,22.00
2022-10-13T15:17:28.336Z,22.10
2022-10-13T15:19:55.772Z,25.70
2022-10-13T15:22:23.631Z,28.38
2022-10-13T15:24:51.433Z,19.50
2022-10-13T15:27:18.913Z,21.95
2022-10-13T15:29:46.416Z,25.73
2022-10-13T15:32:20.411Z,28.40
2022-10-13T15:34:55.135Z,26.08
2022-10-13T15:37:22.580Z,25.13
2022-10-13T15:39:54.512Z,26.63
2022-10-13T15:42:24.518Z,20.33
2022-10-13T15:45:08.671Z,23.98
2022-10-13T15:47:36.701Z,26.98
2022-10-13T15:50:04.574Z,29.55
2022-10-13T15:52:34.953Z,21.33
2022-10-13T15:55:02.875Z,24.67
2022-10-13T15:57:33.775Z,27.85
2022-10-13T16:00:01.271Z,26.70
2022-10-13T16:02:28.742Z,28.13
2022-10-13T16:04:57.290Z,26.75
2022-10-13T16:07:24.805Z,27.65
2022-10-13T16:09:52.287Z,30.38
2022-10-13T16:12:19.888Z,33.05
2022-10-13T16:14:47.668Z,28.30
2022-10-13T16:17:15.161Z,31.67
2022-10-13T16:19:42.724Z,29.33
2022-10-13T16:22:10.214Z,26.40
2022-10-13T16:24:37.670Z,28.75
2022-10-13T16:27:06.591Z,35.05
2022-10-13T16:29:34.171Z,36.65
2022-10-13T16:32:01.645Z,30.08
2022-10-13T16:34:29.311Z,29.65
2022-10-13T16:36:56.844Z,34.28
2022-10-13T16:39:24.901Z,32.25
2022-10-13T16:41:52.863Z,28.70
2022-10-13T16:44:25.352Z,35.47
2022-10-13T16:46:54.271Z,29.95
2022-10-13T16:49:21.784Z,35.35
2022-10-13T16:51:49.230Z,35.15
2022-10-13T16:54:16.691Z,40.53
2022-10-13T16:56:44.125Z,39.83
2022-10-13T16:59:11.634Z,33.30
2022-10-13T17:01:40.407Z,38.95
2022-10-13T17:04:07.887Z,41.75
2022-10-13T17:06:38.754Z,43.80
2022-10-13T17:09:06.283Z,40.03
2022-10-13T17:11:35.590Z,46.78
2022-10-13T17:14:05.825Z,43.90
2022-10-13T17:16:34.087Z,40.42
2022-10-13T17:19:02.203Z,42.03
2022-10-13T17:21:36.983Z,47.95
2022-10-13T17:24:06.462Z,45.88
2022-10-13T17:26:34.182Z,53.28
2022-10-13T17:29:02.182Z,46.72
2022-10-13T17:31:29.784Z,45.22
2022-10-13T17:33:57.231Z,51.13
2022-10-13T17:36:27.031Z,53.28
2022-10-13T17:38:56.144Z,47.67
2022-10-13T17:41:24.586Z,50.30
2022-10-13T17:43:52.543Z,52.13
2022-10-13T17:46:39.246Z,58.47
2022-10-13T17:49:10.087Z,54.42
2022-10-13T17:51:37.901Z,56.28
2022-10-13T17:54:05.484Z,53.03
2022-10-13T17:56:33.228Z,49.20
2022-10-13T17:59:02.197Z,55.05
2022-10-13T18:01:34.722Z,57.17
2022-10-13T18:04:23.668Z,60.88
2022-10-13T18:06:51.141Z,60.63
2022-10-13T18:09:21.097Z,57.78
2022-10-13T18:11:51.167Z,58.13
2022-10-13T18:14:24.917Z,50.03
2022-10-13T18:16:53.395Z,55.15
2022-10-13T18:19:21.862Z,58.78
2022-10-13T18:21:49.656Z,56.80
2022-10-13T18:24:17.282Z,61.25
2022-10-13T18:26:44.843Z,55.63
2022-10-13T18:29:13.332Z,55.22
2022-10-13T18:31:42.096Z,51.45
2022-10-13T18:34:13.281Z,54.92
2022-10-13T18:36:43.429Z,66.10
2022-10-13T18:39:20.296Z,49.42
2022-10-13T18:41:50.248Z,52.22
2022-10-13T18:44:18.225Z,46.78
2022-10-13T18:46:45.659Z,50.78
2022-10-13T18:49:14.908Z,59.22
2022-10-13T18:51:43.992Z,52.10
2022-10-13T18:54:11.970Z,52.75
2022-10-13T18:56:39.482Z,52.30
2022-10-13T18:59:08.349Z,53.40
2022-10-13T19:01:37.781Z,57.08
2022-10-13T19:04:06.018Z,47.58
2022-10-13T19:06:33.802Z,55.13
2022-10-13T19:09:07.139Z,47.95
2022-10-13T19:11:37.465Z,49.20
2022-10-13T19:14:07.659Z,50.47
2022-10-13T19:16:38.169Z,46.92
2022-10-13T19:19:06.873Z,51.22
2022-10-13T19:21:34.276Z,49.50
2022-10-13T19:24:02.200Z,42.40
2022-10-13T19:26:32.443Z,46.92
2022-10-13T19:29:04.310Z,45.95
2022-10-13T19:31:33.653Z,48.10
2022-10-13T19:34:05.363Z,44.65
2022-10-13T19:36:37.662Z,40.22
2022-10-13T19:39:11.569Z,40.50
2022-10-13T19:41:39.363Z,43.58
2022-10-13T19:44:06.793Z,40.55
2022-10-13T19:46:40.503Z,41.10
2022-10-13T19:49:08.692Z,42.00
2022-10-13T19:51:37.873Z,39.53
2022-10-13T19:54:05.587Z,45.38
2022-10-13T19:56:34.159Z,42.95
2022-10-13T19:59:04.454Z,40.53
2022-10-13T20:01:33.168Z,42.60
2022-10-13T20:04:01.762Z,39.63
2022-10-13T20:06:29.154Z,41.95
2022-10-13T20:08:58.713Z,39.10
2022-10-13T20:11:26.780Z,39.38
2022-10-13T20:13:54.215Z,38.13
2022-10-13T20:16:24.719Z,32.92
2022-10-13T20:18:55.754Z,35.22
2022-10-13T20:21:24.887Z,39.58
2022-10-13T20:23:52.628Z,37.75
2022-10-13T20:26:20.287Z,41.63
2022-10-13T20:28:49.358Z,48.50
2022-10-13T20:31:19.778Z,34.08
2022-10-13T20:33:47.430Z,37.00
2022-10-13T20:36:16.862Z,43.88
2022-10-13T20:38:44.508Z,37.22
2022-10-13T20:41:21.160Z,31.67
2022-10-13T20:43:49.542Z,34.92
2022-10-13T20:46:18.373Z,29.70
2022-10-13T20:51:34.154Z,34.97
2022-10-13T20:54:01.681Z,28.75
2022-10-13T20:56:29.182Z,31.13
2022-10-13T20:58:56.851Z,36.10
2022-10-13T21:01:24.363Z,28.73
2022-10-13T21:03:55.414Z,29.50
2022-10-13T21:06:25.113Z,29.98
2022-10-13T21:08:52.964Z,31.52
2022-10-13T21:11:22.324Z,37.05
2022-10-13T21:13:50.894Z,37.00
2022-10-13T21:16:27.279Z,28.05
2022-10-13T21:18:56.378Z,33.40
2022-10-13T21:21:29.090Z,30.05
2022-10-13T21:24:02.158Z,29.48
2022-10-13T21:26:31.993Z,27.10
2022-10-13T21:29:00.730Z,31.92
2022-10-13T21:31:29.578Z,35.75
2022-10-13T21:33:57.162Z,26.90
2022-10-13T21:36:30.815Z,26.60
2022-10-13T21:39:05.865Z,26.98
2022-10-13T21:41:34.161Z,20.77
2022-10-13T21:44:02.251Z,24.63
2022-10-13T21:46:33.455Z,23.65
2022-10-13T21:49:03.097Z,30.30
2022-10-13T21:51:33.631Z,22.63
2022-10-13T21:54:10.191Z,22.73
2022-10-13T21:56:38.670Z,26.17
2022-10-13T21:59:07.311Z,24.20
2022-10-13T22:01:34.853Z,21.80
2022-10-13T22:06:37.180Z,17.25
2022-10-13T22:09:06.213Z,15.88
2022-10-13T22:11:36.034Z,23.67
2022-10-13T22:14:11.075Z,24.33
2022-10-13T22:16:44.171Z,23.25
2022-10-13T22:19:12.424Z,23.73
2022-10-13T22:21:46.303Z,22.83
2022-10-13T22:26:43.729Z,25.70
2022-10-13T22:29:13.811Z,23.35
2022-10-13T22:31:41.598Z,26.83
2022-10-13T22:34:13.079Z,23.58
2022-10-13T22:36:44.406Z,22.25
2022-10-13T22:39:13.082Z,22.73
2022-10-13T22:41:41.380Z,26.10
2022-10-13T22:44:09.329Z,22.23
2022-10-13T22:46:39.239Z,24.88
2022-10-13T22:49:08.014Z,28.52
2022-10-13T22:51:36.610Z,30.52
2022-10-13T22:54:04.196Z,29.92
2022-10-13T22:56:33.289Z,33.45
2022-10-13T22:59:08.572Z,33.08
2022-10-13T23:01:36.553Z,35.17
2022-10-13T23:04:04.640Z,34.75
2022-10-13T23:06:34.582Z,29.30
2022-10-13T23:09:05.268Z,37.75
2022-10-13T23:11:34.513Z,29.95
2022-10-13T23:14:03.492Z,25.08
2022-10-13T23:16:31.279Z,33.47
2022-10-13T23:18:58.814Z,32.20
2022-10-13T23:21:28.632Z,30.95
2022-10-13T23:23:58.987Z,26.65
2022-10-13T23:26:26.703Z,32.67
2022-10-13T23:28:56.107Z,28.27
2022-10-13T23:31:24.557Z,26.58
2022-10-13T23:33:52.174Z,24.83
2022-10-13T23:36:22.613Z,19.50
2022-10-13T23:38:58.002Z,26.50
2022-10-13T23:41:26.331Z,21.77
2022-10-13T23:43:53.883Z,21.45
2022-10-13T23:46:21.642Z,19.73
2022-10-13T23:48:49.121Z,19.25
2022-10-13T23:51:20.921Z,20.70
2022-10-13T23:53:48.436Z,20.75
2022-10-13T23:56:18.400Z,18.92
2022-10-13T23:58:46.282Z,18.27
